sensor_id;sensor_type;location;lat;lon;timestamp;P1;durP1;ratioP1;P2;durP2;ratioP2
11665;SDS011;5889;51.350;6.708;2023-10-13T00:00:11;18.33;;;11.52;;
11665;SDS011;5889;51.350;6.708;2023-10-13T00:02:54;17.88;;;12.10;;
11665;SDS011;5889;51.350;6.708;2023-10-13T00:05:27;18.90;;;12.07;;
11665;SDS011;5889;51.350;6.708;2023-10-13T00:07:55;18.10;;;11.40;;
11665;SDS011;5889;51.350;6.708;2023-10-13T00:10:26;19.25;;;12.07;;
11665;SDS011;5889;51.350;6.708;2023-10-13T00:12:53;16.77;;;11.45;;
11665;SDS011;5889;51.350;6.708;2023-10-13T00:15:30;21.58;;;11.20;;
11665;SDS011;5889;51.350;6.708;2023-10-13T00:18:03;14.43;;;10.68;;
11665;SDS011;5889;51.350;6.708;2023-10-13T00:20:38;21.67;;;11.23;;
11665;SDS011;5889;51.350;6.708;2023-10-13T00:23:12;24.73;;;11.68;;
11665;SDS011;5889;51.350;6.708;2023-10-13T00:25:39;20.30;;;10.85;;
11665;SDS011;5889;51.350;6.708;2023-10-13T00:28:15;23.30;;;11.80;;
11665;SDS011;5889;51.350;6.708;2023-10-13T00:30:48;16.85;;;10.07;;
11665;SDS011;5889;51.350;6.708;2023-10-13T00:33:17;18.88;;;10.50;;
11665;SDS011;5889;51.350;6.708;2023-10-13T00:35:46;18.38;;;10.57;;
11665;SDS011;5889;51.350;6.708;2023-10-13T00:38:16;15.27;;;10.05;;
11665;SDS011;5889;51.350;6.708;2023-10-13T00:40:44;13.77;;;10.40;;
11665;SDS011;5889;51.350;6.708;2023-10-13T00:43:17;15.10;;;10.25;;
11665;SDS011;5889;51.350;6.708;2023-10-13T00:46:04;19.52;;;10.10;;
11665;SDS011;5889;51.350;6.708;2023-10-13T00:48:34;17.88;;;9.98;;
11665;SDS011;5889;51.350;6.708;2023-10-13T00:51:10;15.60;;;10.05;;
11665;SDS011;5889;51.350;6.708;2023-10-13T00:53:57;19.10;;;11.07;;
11665;SDS011;5889;51.350;6.708;2023-10-13T00:56:25;17.65;;;11.55;;
11665;SDS011;5889;51.350;6.708;2023-10-13T00:58:53;16.73;;;11.00;;
11665;SDS011;5889;51.350;6.708;2023-10-13T01:01:22;17.40;;;11.10;;
11665;SDS011;5889;51.350;6.708;2023-10-13T01:03:55;20.35;;;11.43;;
11665;SDS011;5889;51.350;6.708;2023-10-13T01:06:25;14.63;;;10.30;;
11665;SDS011;5889;51.350;6.708;2023-10-13T01:08:57;18.33;;;10.98;;
11665;SDS011;5889;51.350;6.708;2023-10-13T01:11:25;20.02;;;11.18;;
11665;SDS011;5889;51.350;6.708;2023-10-13T01:13:54;18.40;;;11.82;;
11665;SDS011;5889;51.350;6.708;2023-10-13T01:16:22;18.27;;;11.32;;
11665;SDS011;5889;51.350;6.708;2023-10-13T01:18:51;15.63;;;10.40;;
11665;SDS011;5889;51.350;6.708;2023-10-13T01:21:18;15.88;;;10.55;;
11665;SDS011;5889;51.350;6.708;2023-10-13T01:23:47;18.65;;;11.50;;
11665;SDS011;5889;51.350;6.708;2023-10-13T01:26:15;18.63;;;10.88;;
11665;SDS011;5889;51.350;6.708;2023-10-13T01:28:48;17.73;;;10.73;;
11665;SDS011;5889;51.350;6.708;2023-10-13T01:31:15;16.17;;;10.25;;
11665;SDS011;5889;51.350;6.708;2023-10-13T01:33:56;18.33;;;11.73;;
11665;SDS011;5889;51.350;6.708;2023-10-13T01:36:24;17.35;;;11.10;;
11665;SDS011;5889;51.350;6.708;2023-10-13T01:38:53;18.45;;;11.20;;
11665;SDS011;5889;51.350;6.708;2023-10-13T01:41:20;20.48;;;11.32;;
11665;SDS011;5889;51.350;6.708;2023-10-13T01:43:48;18.15;;;11.43;;
11665;SDS011;5889;51.350;6.708;2023-10-13T01:46:14;17.85;;;11.93;;
11665;SDS011;5889;51.350;6.708;2023-10-13T01:48:44;16.30;;;11.55;;
11665;SDS011;5889;51.350;6.708;2023-10-13T01:51:11;16.67;;;11.77;;
11665;SDS011;5889;51.350;6.708;2023-10-13T01:53:39;19.77;;;11.30;;
11665;SDS011;5889;51.350;6.708;2023-10-13T01:56:08;20.48;;;11.15;;
11665;SDS011;5889;51.350;6.708;2023-10-13T01:58:39;16.73;;;11.43;;
11665;SDS011;5889;51.350;6.708;2023-10-13T02:01:07;19.98;;;11.95;;
11665;SDS011;5889;51.350;6.708;2023-10-13T02:03:35;16.35;;;12.18;;
11665;SDS011;5889;51.350;6.708;2023-10-13T02:06:06;21.05;;;11.50;;
11665;SDS011;5889;51.350;6.708;2023-10-13T02:08:35;14.30;;;9.93;;
11665;SDS011;5889;51.350;6.708;2023-10-13T02:11:05;19.48;;;11.68;;
11665;SDS011;5889;51.350;6.708;2023-10-13T02:13:34;14.55;;;9.05;;
11665;SDS011;5889;51.350;6.708;2023-10-13T02:16:06;16.35;;;11.07;;
11665;SDS011;5889;51.350;6.708;2023-10-13T02:18:33;18.90;;;11.45;;
11665;SDS011;5889;51.350;6.708;2023-10-13T02:21:07;17.17;;;10.73;;
11665;SDS011;5889;51.350;6.708;2023-10-13T02:23:38;11.52;;;7.68;;
11665;SDS011;5889;51.350;6.708;2023-10-13T02:26:09;17.83;;;10.63;;
11665;SDS011;5889;51.350;6.708;2023-10-13T02:28:39;15.00;;;9.70;;
11665;SDS011;5889;51.350;6.708;2023-10-13T02:31:06;12.00;;;9.75;;
11665;SDS011;5889;51.350;6.708;2023-10-13T02:33:32;20.50;;;10.10;;
11665;SDS011;5889;51.350;6.708;2023-10-13T02:36:00;16.63;;;10.50;;
11665;SDS011;5889;51.350;6.708;2023-10-13T02:38:29;17.67;;;11.02;;
11665;SDS011;5889;51.350;6.708;2023-10-13T02:41:09;17.85;;;10.27;;
11665;SDS011;5889;51.350;6.708;2023-10-13T02:43:36;15.30;;;10.05;;
11665;SDS011;5889;51.350;6.708;2023-10-13T02:46:06;12.77;;;9.68;;
11665;SDS011;5889;51.350;6.708;2023-10-13T02:48:32;15.38;;;10.23;;
11665;SDS011;5889;51.350;6.708;2023-10-13T02:51:06;14.48;;;10.02;;
11665;SDS011;5889;51.350;6.708;2023-10-13T02:53:40;18.90;;;10.45;;
11665;SDS011;5889;51.350;6.708;2023-10-13T02:56:11;12.32;;;8.27;;
11665;SDS011;5889;51.350;6.708;2023-10-13T02:58:40;18.08;;;10.73;;
11665;SDS011;5889;51.350;6.708;2023-10-13T03:01:10;15.30;;;9.88;;
11665;SDS011;5889;51.350;6.708;2023-10-13T03:03:43;12.82;;;8.88;;
11665;SDS011;5889;51.350;6.708;2023-10-13T03:06:15;15.07;;;10.05;;
11665;SDS011;5889;51.350;6.708;2023-10-13T03:08:42;13.60;;;10.05;;
11665;SDS011;5889;51.350;6.708;2023-10-13T03:11:09;15.98;;;10.90;;
11665;SDS011;5889;51.350;6.708;2023-10-13T03:13:36;12.65;;;9.50;;
11665;SDS011;5889;51.350;6.708;2023-10-13T03:16:13;17.38;;;11.85;;
11665;SDS011;5889;51.350;6.708;2023-10-13T03:18:44;16.42;;;11.20;;
11665;SDS011;5889;51.350;6.708;2023-10-13T03:21:19;17.98;;;11.25;;
11665;SDS011;5889;51.350;6.708;2023-10-13T03:23:54;18.80;;;11.05;;
11665;SDS011;5889;51.350;6.708;2023-10-13T03:26:29;20.20;;;11.45;;
11665;SDS011;5889;51.350;6.708;2023-10-13T03:29:00;17.50;;;10.77;;
11665;SDS011;5889;51.350;6.708;2023-10-13T03:31:30;16.13;;;10.48;;
11665;SDS011;5889;51.350;6.708;2023-10-13T03:34:02;17.85;;;10.98;;
11665;SDS011;5889;51.350;6.708;2023-10-13T03:36:35;16.80;;;9.52;;
11665;SDS011;5889;51.350;6.708;2023-10-13T03:39:19;14.80;;;10.68;;
11665;SDS011;5889;51.350;6.708;2023-10-13T03:41:52;15.25;;;9.50;;
11665;SDS011;5889;51.350;6.708;2023-10-13T03:44:19;13.45;;;9.80;;
11665;SDS011;5889;51.350;6.708;2023-10-13T03:46:49;20.75;;;11.40;;
11665;SDS011;5889;51.350;6.708;2023-10-13T03:49:19;17.33;;;10.57;;
11665;SDS011;5889;51.350;6.708;2023-10-13T03:51:47;16.63;;;11.05;;
11665;SDS011;5889;51.350;6.708;2023-10-13T03:54:16;14.23;;;10.43;;
11665;SDS011;5889;51.350;6.708;2023-10-13T03:56:43;12.48;;;8.73;;
11665;SDS011;5889;51.350;6.708;2023-10-13T03:59:11;24.85;;;11.40;;
11665;SDS011;5889;51.350;6.708;2023-10-13T04:01:45;15.57;;;10.80;;
11665;SDS011;5889;51.350;6.708;2023-10-13T04:04:20;16.23;;;10.63;;
11665;SDS011;5889;51.350;6.708;2023-10-13T04:06:59;21.38;;;12.07;;
11665;SDS011;5889;51.350;6.708;2023-10-13T04:09:45;21.42;;;12.15;;
11665;SDS011;5889;51.350;6.708;2023-10-13T04:12:35;17.35;;;10.82;;
11665;SDS011;5889;51.350;6.708;2023-10-13T04:15:19;17.30;;;11.48;;
11665;SDS011;5889;51.350;6.708;2023-10-13T04:17:48;19.48;;;10.32;;
11665;SDS011;5889;51.350;6.708;2023-10-13T04:20:17;14.88;;;11.63;;
11665;SDS011;5889;51.350;6.708;2023-10-13T04:23:03;16.50;;;11.25;;
11665;SDS011;5889;51.350;6.708;2023-10-13T04:25:43;14.00;;;9.38;;
11665;SDS011;5889;51.350;6.708;2023-10-13T04:28:33;22.13;;;11.95;;
11665;SDS011;5889;51.350;6.708;2023-10-13T04:31:17;16.38;;;11.25;;
11665;SDS011;5889;51.350;6.708;2023-10-13T04:34:01;19.92;;;11.73;;
11665;SDS011;5889;51.350;6.708;2023-10-13T04:36:40;17.13;;;11.77;;
11665;SDS011;5889;51.350;6.708;2023-10-13T04:39:10;18.85;;;10.88;;
11665;SDS011;5889;51.350;6.708;2023-10-13T04:41:42;19.08;;;12.20;;
11665;SDS011;5889;51.350;6.708;2023-10-13T04:44:08;19.42;;;12.13;;
11665;SDS011;5889;51.350;6.708;2023-10-13T04:46:54;19.48;;;12.45;;
11665;SDS011;5889;51.350;6.708;2023-10-13T04:49:38;18.70;;;11.70;;
11665;SDS011;5889;51.350;6.708;2023-10-13T04:52:18;24.17;;;12.90;;
11665;SDS011;5889;51.350;6.708;2023-10-13T04:55:04;15.88;;;10.13;;
11665;SDS011;5889;51.350;6.708;2023-10-13T04:57:52;14.68;;;11.00;;
11665;SDS011;5889;51.350;6.708;2023-10-13T05:00:39;17.77;;;11.73;;
11665;SDS011;5889;51.350;6.708;2023-10-13T05:03:34;16.73;;;11.77;;
11665;SDS011;5889;51.350;6.708;2023-10-13T05:06:18;16.42;;;10.48;;
11665;SDS011;5889;51.350;6.708;2023-10-13T05:09:04;20.02;;;12.50;;
11665;SDS011;5889;51.350;6.708;2023-10-13T05:11:48;21.27;;;10.88;;
11665;SDS011;5889;51.350;6.708;2023-10-13T05:14:33;20.98;;;13.55;;
11665;SDS011;5889;51.350;6.708;2023-10-13T05:17:17;18.13;;;11.73;;
11665;SDS011;5889;51.350;6.708;2023-10-13T05:20:01;23.52;;;12.65;;
11665;SDS011;5889;51.350;6.708;2023-10-13T05:22:54;18.73;;;12.35;;
11665;SDS011;5889;51.350;6.708;2023-10-13T05:25:40;20.38;;;13.05;;
11665;SDS011;5889;51.350;6.708;2023-10-13T05:28:24;19.02;;;11.50;;
11665;SDS011;5889;51.350;6.708;2023-10-13T05:31:08;18.80;;;13.00;;
11665;SDS011;5889;51.350;6.708;2023-10-13T05:33:52;20.15;;;12.98;;
11665;SDS011;5889;51.350;6.708;2023-10-13T05:36:36;23.35;;;13.40;;
11665;SDS011;5889;51.350;6.708;2023-10-13T05:39:21;15.48;;;9.52;;
11665;SDS011;5889;51.350;6.708;2023-10-13T05:42:08;18.55;;;11.43;;
11665;SDS011;5889;51.350;6.708;2023-10-13T05:44:52;17.88;;;11.88;;
11665;SDS011;5889;51.350;6.708;2023-10-13T05:47:48;18.53;;;12.37;;
11665;SDS011;5889;51.350;6.708;2023-10-13T05:50:26;20.88;;;11.88;;
11665;SDS011;5889;51.350;6.708;2023-10-13T05:53:15;18.67;;;11.25;;
11665;SDS011;5889;51.350;6.708;2023-10-13T05:56:00;19.45;;;11.77;;
11665;SDS011;5889;51.350;6.708;2023-10-13T05:58:49;19.63;;;11.35;;
11665;SDS011;5889;51.350;6.708;2023-10-13T06:01:33;19.60;;;10.48;;
11665;SDS011;5889;51.350;6.708;2023-10-13T06:04:17;23.85;;;11.00;;
11665;SDS011;5889;51.350;6.708;2023-10-13T06:07:01;18.77;;;9.73;;
11665;SDS011;5889;51.350;6.708;2023-10-13T06:09:45;17.77;;;9.25;;
11665;SDS011;5889;51.350;6.708;2023-10-13T06:12:29;17.70;;;9.35;;
11665;SDS011;5889;51.350;6.708;2023-10-13T06:15:16;18.23;;;9.43;;
11665;SDS011;5889;51.350;6.708;2023-10-13T06:18:00;18.52;;;9.10;;
11665;SDS011;5889;51.350;6.708;2023-10-13T06:20:44;21.17;;;8.30;;
11665;SDS011;5889;51.350;6.708;2023-10-13T06:23:28;19.70;;;7.97;;
11665;SDS011;5889;51.350;6.708;2023-10-13T06:26:12;18.25;;;7.57;;
11665;SDS011;5889;51.350;6.708;2023-10-13T06:28:56;25.95;;;7.75;;
11665;SDS011;5889;51.350;6.708;2023-10-13T06:31:24;18.55;;;7.38;;
11665;SDS011;5889;51.350;6.708;2023-10-13T06:33:51;14.15;;;6.97;;
11665;SDS011;5889;51.350;6.708;2023-10-13T06:36:20;16.23;;;7.00;;
11665;SDS011;5889;51.350;6.708;2023-10-13T06:38:47;13.65;;;7.15;;
11665;SDS011;5889;51.350;6.708;2023-10-13T06:41:20;17.35;;;7.63;;
11665;SDS011;5889;51.350;6.708;2023-10-13T06:43:55;17.08;;;7.72;;
11665;SDS011;5889;51.350;6.708;2023-10-13T06:46:29;18.45;;;7.90;;
11665;SDS011;5889;51.350;6.708;2023-10-13T06:48:59;15.27;;;7.75;;
11665;SDS011;5889;51.350;6.708;2023-10-13T06:51:27;17.80;;;7.63;;
11665;SDS011;5889;51.350;6.708;2023-10-13T06:54:03;17.30;;;7.40;;
11665;SDS011;5889;51.350;6.708;2023-10-13T06:56:35;21.08;;;7.80;;
11665;SDS011;5889;51.350;6.708;2023-10-13T06:59:04;13.23;;;6.55;;
11665;SDS011;5889;51.350;6.708;2023-10-13T07:01:33;13.75;;;6.93;;
11665;SDS011;5889;51.350;6.708;2023-10-13T07:04:03;15.02;;;7.32;;
11665;SDS011;5889;51.350;6.708;2023-10-13T07:06:38;19.13;;;8.40;;
11665;SDS011;5889;51.350;6.708;2023-10-13T07:09:07;14.88;;;7.70;;
11665;SDS011;5889;51.350;6.708;2023-10-13T07:11:44;15.60;;;7.43;;
11665;SDS011;5889;51.350;6.708;2023-10-13T07:14:17;19.85;;;9.10;;
11665;SDS011;5889;51.350;6.708;2023-10-13T07:16:56;20.08;;;9.10;;
11665;SDS011;5889;51.350;6.708;2023-10-13T07:19:24;17.05;;;9.48;;
11665;SDS011;5889;51.350;6.708;2023-10-13T07:21:53;19.02;;;8.68;;
11665;SDS011;5889;51.350;6.708;2023-10-13T07:24:23;14.35;;;8.52;;
11665;SDS011;5889;51.350;6.708;2023-10-13T07:26:52;16.63;;;9.00;;
11665;SDS011;5889;51.350;6.708;2023-10-13T07:29:28;16.45;;;7.50;;
11665;SDS011;5889;51.350;6.708;2023-10-13T07:31:57;15.00;;;9.07;;
11665;SDS011;5889;51.350;6.708;2023-10-13T07:34:23;16.15;;;8.90;;
11665;SDS011;5889;51.350;6.708;2023-10-13T07:36:51;18.60;;;9.73;;
11665;SDS011;5889;51.350;6.708;2023-10-13T07:39:24;23.95;;;9.52;;
11665;SDS011;5889;51.350;6.708;2023-10-13T07:41:58;19.17;;;10.82;;
11665;SDS011;5889;51.350;6.708;2023-10-13T07:44:31;17.67;;;9.25;;
11665;SDS011;5889;51.350;6.708;2023-10-13T07:47:00;19.48;;;10.40;;
11665;SDS011;5889;51.350;6.708;2023-10-13T07:49:30;19.58;;;10.07;;
11665;SDS011;5889;51.350;6.708;2023-10-13T07:51:58;18.33;;;9.45;;
11665;SDS011;5889;51.350;6.708;2023-10-13T07:54:41;18.50;;;10.35;;
11665;SDS011;5889;51.350;6.708;2023-10-13T07:57:08;18.30;;;9.60;;
11665;SDS011;5889;51.350;6.708;2023-10-13T07:59:39;15.18;;;9.77;;
11665;SDS011;5889;51.350;6.708;2023-10-13T08:02:14;13.80;;;8.82;;
11665;SDS011;5889;51.350;6.708;2023-10-13T08:05:01;13.85;;;9.93;;
11665;SDS011;5889;51.350;6.708;2023-10-13T08:07:29;16.60;;;8.75;;
11665;SDS011;5889;51.350;6.708;2023-10-13T08:09:56;14.55;;;9.93;;
11665;SDS011;5889;51.350;6.708;2023-10-13T08:12:24;15.70;;;9.55;;
11665;SDS011;5889;51.350;6.708;2023-10-13T08:14:52;17.60;;;9.07;;
11665;SDS011;5889;51.350;6.708;2023-10-13T08:17:42;14.77;;;9.43;;
11665;SDS011;5889;51.350;6.708;2023-10-13T08:20:10;17.33;;;8.30;;
11665;SDS011;5889;51.350;6.708;2023-10-13T08:22:38;14.50;;;8.68;;
11665;SDS011;5889;51.350;6.708;2023-10-13T08:25:12;14.52;;;7.57;;
11665;SDS011;5889;51.350;6.708;2023-10-13T08:27:46;17.52;;;8.70;;
11665;SDS011;5889;51.350;6.708;2023-10-13T08:30:15;12.55;;;7.60;;
11665;SDS011;5889;51.350;6.708;2023-10-13T08:32:55;18.30;;;8.43;;
11665;SDS011;5889;51.350;6.708;2023-10-13T08:35:24;16.55;;;8.15;;
11665;SDS011;5889;51.350;6.708;2023-10-13T08:38:01;13.65;;;7.30;;
11665;SDS011;5889;51.350;6.708;2023-10-13T08:40:43;10.77;;;7.00;;
11665;SDS011;5889;51.350;6.708;2023-10-13T08:43:36;15.02;;;7.13;;
11665;SDS011;5889;51.350;6.708;2023-10-13T08:46:10;13.82;;;6.70;;
11665;SDS011;5889;51.350;6.708;2023-10-13T08:48:53;11.65;;;6.82;;
11665;SDS011;5889;51.350;6.708;2023-10-13T08:51:32;10.93;;;6.32;;
11665;SDS011;5889;51.350;6.708;2023-10-13T08:54:14;12.82;;;6.45;;
11665;SDS011;5889;51.350;6.708;2023-10-13T08:57:01;17.55;;;6.80;;
11665;SDS011;5889;51.350;6.708;2023-10-13T08:59:58;13.95;;;6.32;;
11665;SDS011;5889;51.350;6.708;2023-10-13T09:02:44;18.42;;;6.82;;
11665;SDS011;5889;51.350;6.708;2023-10-13T09:05:49;17.15;;;6.90;;
11665;SDS011;5889;51.350;6.708;2023-10-13T09:08:31;12.57;;;6.30;;
11665;SDS011;5889;51.350;6.708;2023-10-13T09:11:09;15.90;;;6.05;;
11665;SDS011;5889;51.350;6.708;2023-10-13T09:13:39;18.73;;;6.03;;
11665;SDS011;5889;51.350;6.708;2023-10-13T09:16:12;13.73;;;5.55;;
11665;SDS011;5889;51.350;6.708;2023-10-13T09:18:47;15.25;;;5.65;;
11665;SDS011;5889;51.350;6.708;2023-10-13T09:21:18;14.35;;;5.35;;
11665;SDS011;5889;51.350;6.708;2023-10-13T09:24:03;11.32;;;5.15;;
11665;SDS011;5889;51.350;6.708;2023-10-13T09:26:46;13.82;;;5.43;;
11665;SDS011;5889;51.350;6.708;2023-10-13T09:29:16;8.98;;;5.43;;
11665;SDS011;5889;51.350;6.708;2023-10-13T09:31:44;13.50;;;5.80;;
11665;SDS011;5889;51.350;6.708;2023-10-13T09:34:20;11.75;;;5.18;;
11665;SDS011;5889;51.350;6.708;2023-10-13T09:36:50;11.80;;;5.10;;
11665;SDS011;5889;51.350;6.708;2023-10-13T09:39:23;9.43;;;5.75;;
11665;SDS011;5889;51.350;6.708;2023-10-13T09:42:00;11.05;;;6.07;;
11665;SDS011;5889;51.350;6.708;2023-10-13T09:44:26;15.50;;;6.40;;
11665;SDS011;5889;51.350;6.708;2023-10-13T09:46:57;11.48;;;5.65;;
11665;SDS011;5889;51.350;6.708;2023-10-13T09:49:32;10.80;;;5.88;;
11665;SDS011;5889;51.350;6.708;2023-10-13T09:52:15;11.20;;;5.88;;
11665;SDS011;5889;51.350;6.708;2023-10-13T09:54:51;17.52;;;5.85;;
11665;SDS011;5889;51.350;6.708;2023-10-13T09:57:28;9.70;;;5.78;;
11665;SDS011;5889;51.350;6.708;2023-10-13T10:00:01;17.85;;;5.95;;
11665;SDS011;5889;51.350;6.708;2023-10-13T10:02:52;16.10;;;6.75;;
11665;SDS011;5889;51.350;6.708;2023-10-13T10:05:23;11.77;;;6.05;;
11665;SDS011;5889;51.350;6.708;2023-10-13T10:07:56;12.02;;;5.53;;
11665;SDS011;5889;51.350;6.708;2023-10-13T10:10:25;12.93;;;6.28;;
11665;SDS011;5889;51.350;6.708;2023-10-13T10:13:12;14.43;;;6.28;;
11665;SDS011;5889;51.350;6.708;2023-10-13T10:15:46;12.80;;;6.32;;
11665;SDS011;5889;51.350;6.708;2023-10-13T10:18:17;12.07;;;5.90;;
11665;SDS011;5889;51.350;6.708;2023-10-13T10:20:47;14.40;;;6.63;;
11665;SDS011;5889;51.350;6.708;2023-10-13T10:23:25;15.57;;;6.13;;
11665;SDS011;5889;51.350;6.708;2023-10-13T10:25:55;11.93;;;6.30;;
11665;SDS011;5889;51.350;6.708;2023-10-13T10:28:36;16.20;;;7.00;;
11665;SDS011;5889;51.350;6.708;2023-10-13T10:31:04;13.07;;;6.78;;
11665;SDS011;5889;51.350;6.708;2023-10-13T10:33:34;11.25;;;7.00;;
11665;SDS011;5889;51.350;6.708;2023-10-13T10:36:02;17.42;;;6.95;;
11665;SDS011;5889;51.350;6.708;2023-10-13T10:38:31;12.80;;;6.95;;
11665;SDS011;5889;51.350;6.708;2023-10-13T10:41:04;14.43;;;7.32;;
11665;SDS011;5889;51.350;6.708;2023-10-13T10:43:36;11.73;;;7.03;;
11665;SDS011;5889;51.350;6.708;2023-10-13T10:46:11;17.35;;;7.40;;
11665;SDS011;5889;51.350;6.708;2023-10-13T10:48:39;10.90;;;7.07;;
11665;SDS011;5889;51.350;6.708;2023-10-13T10:51:09;13.93;;;6.75;;
11665;SDS011;5889;51.350;6.708;2023-10-13T10:53:48;13.77;;;6.97;;
11665;SDS011;5889;51.350;6.708;2023-10-13T10:56:16;14.70;;;6.90;;
11665;SDS011;5889;51.350;6.708;2023-10-13T10:58:50;11.98;;;6.75;;
11665;SDS011;5889;51.350;6.708;2023-10-13T11:01:21;13.73;;;7.57;;
11665;SDS011;5889;51.350;6.708;2023-10-13T11:03:54;10.07;;;6.53;;
11665;SDS011;5889;51.350;6.708;2023-10-13T11:06:33;14.55;;;6.88;;
11665;SDS011;5889;51.350;6.708;2023-10-13T11:09:05;15.07;;;7.10;;
11665;SDS011;5889;51.350;6.708;2023-10-13T11:11:43;15.95;;;7.13;;
11665;SDS011;5889;51.350;6.708;2023-10-13T11:14:19;13.50;;;7.15;;
11665;SDS011;5889;51.350;6.708;2023-10-13T11:16:49;17.23;;;7.45;;
11665;SDS011;5889;51.350;6.708;2023-10-13T11:19:18;9.75;;;6.72;;
11665;SDS011;5889;51.350;6.708;2023-10-13T11:21:50;9.68;;;6.57;;
11665;SDS011;5889;51.350;6.708;2023-10-13T11:24:20;11.73;;;6.80;;
11665;SDS011;5889;51.350;6.708;2023-10-13T11:26:47;14.77;;;6.43;;
11665;SDS011;5889;51.350;6.708;2023-10-13T11:29:19;14.18;;;6.43;;
11665;SDS011;5889;51.350;6.708;2023-10-13T11:31:59;14.63;;;6.90;;
11665;SDS011;5889;51.350;6.708;2023-10-13T11:34:28;18.13;;;7.13;;
11665;SDS011;5889;51.350;6.708;2023-10-13T11:37:04;12.27;;;6.80;;
11665;SDS011;5889;51.350;6.708;2023-10-13T11:39:54;17.08;;;6.78;;
11665;SDS011;5889;51.350;6.708;2023-10-13T11:42:21;9.88;;;5.80;;
11665;SDS011;5889;51.350;6.708;2023-10-13T11:44:52;18.80;;;6.00;;
11665;SDS011;5889;51.350;6.708;2023-10-13T11:47:39;13.13;;;6.20;;
11665;SDS011;5889;51.350;6.708;2023-10-13T11:50:13;17.08;;;6.13;;
11665;SDS011;5889;51.350;6.708;2023-10-13T11:52:52;16.23;;;6.30;;
11665;SDS011;5889;51.350;6.708;2023-10-13T11:55:20;14.35;;;6.25;;
11665;SDS011;5889;51.350;6.708;2023-10-13T11:57:48;16.00;;;5.88;;
11665;SDS011;5889;51.350;6.708;2023-10-13T12:00:15;14.82;;;5.97;;
11665;SDS011;5889;51.350;6.708;2023-10-13T12:03:10;15.88;;;6.55;;
11665;SDS011;5889;51.350;6.708;2023-10-13T12:05:54;17.90;;;6.97;;
11665;SDS011;5889;51.350;6.708;2023-10-13T12:08:43;15.63;;;5.70;;
11665;SDS011;5889;51.350;6.708;2023-10-13T12:11:16;19.48;;;6.03;;
11665;SDS011;5889;51.350;6.708;2023-10-13T12:14:03;17.58;;;6.07;;
11665;SDS011;5889;51.350;6.708;2023-10-13T12:16:42;19.73;;;5.80;;
11665;SDS011;5889;51.350;6.708;2023-10-13T12:19:13;19.38;;;6.20;;
11665;SDS011;5889;51.350;6.708;2023-10-13T12:21:42;16.05;;;5.93;;
11665;SDS011;5889;51.350;6.708;2023-10-13T12:24:10;17.80;;;6.43;;
11665;SDS011;5889;51.350;6.708;2023-10-13T12:26:48;15.45;;;5.35;;
11665;SDS011;5889;51.350;6.708;2023-10-13T12:29:21;18.55;;;5.82;;
11665;SDS011;5889;51.350;6.708;2023-10-13T12:31:53;16.13;;;6.47;;
11665;SDS011;5889;51.350;6.708;2023-10-13T12:34:33;16.55;;;6.18;;
11665;SDS011;5889;51.350;6.708;2023-10-13T12:37:22;20.10;;;5.68;;
11665;SDS011;5889;51.350;6.708;2023-10-13T12:40:15;18.38;;;6.70;;
11665;SDS011;5889;51.350;6.708;2023-10-13T12:43:02;22.15;;;6.10;;
11665;SDS011;5889;51.350;6.708;2023-10-13T12:45:48;15.05;;;6.15;;
11665;SDS011;5889;51.350;6.708;2023-10-13T12:48:34;20.55;;;6.20;;
11665;SDS011;5889;51.350;6.708;2023-10-13T12:51:20;17.67;;;6.15;;
11665;SDS011;5889;51.350;6.708;2023-10-13T12:54:05;14.68;;;5.97;;
11665;SDS011;5889;51.350;6.708;2023-10-13T12:56:39;17.67;;;6.07;;
11665;SDS011;5889;51.350;6.708;2023-10-13T12:59:09;17.70;;;5.85;;
11665;SDS011;5889;51.350;6.708;2023-10-13T13:01:38;17.80;;;5.72;;
11665;SDS011;5889;51.350;6.708;2023-10-13T13:04:08;16.25;;;5.38;;
11665;SDS011;5889;51.350;6.708;2023-10-13T13:06:43;23.42;;;6.35;;
11665;SDS011;5889;51.350;6.708;2023-10-13T13:09:10;19.23;;;6.03;;
11665;SDS011;5889;51.350;6.708;2023-10-13T13:11:37;19.67;;;6.15;;
11665;SDS011;5889;51.350;6.708;2023-10-13T13:14:05;18.40;;;5.88;;
11665;SDS011;5889;51.350;6.708;2023-10-13T13:16:35;22.80;;;6.32;;
11665;SDS011;5889;51.350;6.708;2023-10-13T13:19:04;20.45;;;6.57;;
11665;SDS011;5889;51.350;6.708;2023-10-13T13:21:36;20.20;;;6.32;;
11665;SDS011;5889;51.350;6.708;2023-10-13T13:24:04;19.40;;;6.35;;
11665;SDS011;5889;51.350;6.708;2023-10-13T13:26:36;17.30;;;6.13;;
11665;SDS011;5889;51.350;6.708;2023-10-13T13:29:06;26.13;;;5.68;;
11665;SDS011;5889;51.350;6.708;2023-10-13T13:31:35;22.58;;;6.00;;
11665;SDS011;5889;51.350;6.708;2023-10-13T13:34:07;18.88;;;6.15;;
11665;SDS011;5889;51.350;6.708;2023-10-13T13:36:35;15.20;;;5.90;;
11665;SDS011;5889;51.350;6.708;2023-10-13T13:39:03;17.85;;;5.47;;
11665;SDS011;5889;51.350;6.708;2023-10-13T13:41:31;17.23;;;5.93;;
11665;SDS011;5889;51.350;6.708;2023-10-13T13:43:59;22.65;;;6.03;;
11665;SDS011;5889;51.350;6.708;2023-10-13T13:46:39;18.50;;;5.80;;
11665;SDS011;5889;51.350;6.708;2023-10-13T13:49:09;16.25;;;5.65;;
11665;SDS011;5889;51.350;6.708;2023-10-13T13:51:44;22.67;;;6.07;;
11665;SDS011;5889;51.350;6.708;2023-10-13T13:54:17;19.70;;;6.13;;
11665;SDS011;5889;51.350;6.708;2023-10-13T13:56:45;14.27;;;5.15;;
11665;SDS011;5889;51.350;6.708;2023-10-13T13:59:12;22.00;;;6.63;;
11665;SDS011;5889;51.350;6.708;2023-10-13T14:01:46;13.60;;;5.38;;
11665;SDS011;5889;51.350;6.708;2023-10-13T14:04:13;13.88;;;6.15;;
11665;SDS011;5889;51.350;6.708;2023-10-13T14:06:42;17.77;;;6.05;;
11665;SDS011;5889;51.350;6.708;2023-10-13T14:09:11;23.25;;;6.15;;
11665;SDS011;5889;51.350;6.708;2023-10-13T14:11:47;18.67;;;5.93;;
11665;SDS011;5889;51.350;6.708;2023-10-13T14:14:31;21.73;;;6.20;;
11665;SDS011;5889;51.350;6.708;2023-10-13T14:17:01;15.68;;;6.32;;
11665;SDS011;5889;51.350;6.708;2023-10-13T14:19:33;27.20;;;6.07;;
11665;SDS011;5889;51.350;6.708;2023-10-13T14:22:05;18.10;;;5.50;;
11665;SDS011;5889;51.350;6.708;2023-10-13T14:24:33;16.85;;;5.30;;
11665;SDS011;5889;51.350;6.708;2023-10-13T14:27:08;15.18;;;6.10;;
11665;SDS011;5889;51.350;6.708;2023-10-13T14:29:37;18.52;;;6.40;;
11665;SDS011;5889;51.350;6.708;2023-10-13T14:32:07;13.27;;;5.70;;
11665;SDS011;5889;51.350;6.708;2023-10-13T14:34:38;21.92;;;6.05;;
11665;SDS011;5889;51.350;6.708;2023-10-13T14:37:06;19.73;;;5.88;;
11665;SDS011;5889;51.350;6.708;2023-10-13T14:39:33;22.98;;;5.75;;
11665;SDS011;5889;51.350;6.708;2023-10-13T14:42:02;17.88;;;5.60;;
11665;SDS011;5889;51.350;6.708;2023-10-13T14:44:31;16.48;;;6.03;;
11665;SDS011;5889;51.350;6.708;2023-10-13T14:46:58;21.10;;;6.07;;
11665;SDS011;5889;51.350;6.708;2023-10-13T14:49:27;18.73;;;5.35;;
11665;SDS011;5889;51.350;6.708;2023-10-13T14:51:54;22.52;;;5.85;;
11665;SDS011;5889;51.350;6.708;2023-10-13T14:54:21;16.73;;;5.80;;
11665;SDS011;5889;51.350;6.708;2023-10-13T14:56:58;13.00;;;5.47;;
11665;SDS011;5889;51.350;6.708;2023-10-13T14:59:26;16.88;;;5.13;;
11665;SDS011;5889;51.350;6.708;2023-10-13T15:01:58;19.85;;;6.00;;
11665;SDS011;5889;51.350;6.708;2023-10-13T15:04:27;18.95;;;5.93;;
11665;SDS011;5889;51.350;6.708;2023-10-13T15:06:58;14.60;;;5.45;;
11665;SDS011;5889;51.350;6.708;2023-10-13T15:09:27;12.57;;;5.55;;
11665;SDS011;5889;51.350;6.708;2023-10-13T15:11:54;13.40;;;5.60;;
11665;SDS011;5889;51.350;6.708;2023-10-13T15:14:21;17.83;;;6.20;;
11665;SDS011;5889;51.350;6.708;2023-10-13T15:16:49;12.57;;;5.40;;
11665;SDS011;5889;51.350;6.708;2023-10-13T15:19:17;15.13;;;5.55;;
11665;SDS011;5889;51.350;6.708;2023-10-13T15:21:45;18.73;;;5.50;;
11665;SDS011;5889;51.350;6.708;2023-10-13T15:24:15;23.42;;;6.03;;